sensor_id;sensor_type;location;lat;lon;timestamp;P1;durP1;ratioP1;P2;durP2;ratioP2
6787;SDS011;3431;47.966;10.268;2022-11-20T00:00:10;2.00;;;1.90;;
6787;SDS011;3431;47.966;10.268;2022-11-20T00:00:33;2.10;;;1.90;;
6787;SDS011;3431;47.966;10.268;2022-11-20T00:00:56;2.70;;;2.00;;
6787;SDS011;3431;47.966;10.268;2022-11-20T00:01:18;2.38;;;2.17;;
6787;SDS011;3431;47.966;10.268;2022-11-20T00:01:41;2.22;;;1.98;;
6787;SDS011;3431;47.966;10.268;2022-11-20T00:02:03;1.70;;;1.60;;
6787;SDS011;3431;47.966;10.268;2022-11-20T00:02:25;1.90;;;1.80;;
6787;SDS011;3431;47.966;10.268;2022-11-20T00:02:47;2.13;;;1.92;;
6787;SDS011;3431;47.966;10.268;2022-11-20T00:03:08;1.98;;;1.88;;
6787;SDS011;3431;47.966;10.268;2022-11-20T00:03:30;2.00;;;1.90;;
6787;SDS011;3431;47.966;10.268;2022-11-20T00:03:51;2.00;;;1.90;;
6787;SDS011;3431;47.966;10.268;2022-11-20T00:04:15;1.90;;;1.80;;
6787;SDS011;3431;47.966;10.268;2022-11-20T00:04:37;2.22;;;2.08;;
6787;SDS011;3431;47.966;10.268;2022-11-20T00:05:00;2.30;;;2.10;;
6787;SDS011;3431;47.966;10.268;2022-11-20T00:05:21;2.30;;;2.10;;
6787;SDS011;3431;47.966;10.268;2022-11-20T00:05:44;3.00;;;2.20;;
6787;SDS011;3431;47.966;10.268;2022-11-20T00:06:06;2.45;;;2.25;;
6787;SDS011;3431;47.966;10.268;2022-11-20T00:06:29;2.05;;;1.95;;
6787;SDS011;3431;47.966;10.268;2022-11-20T00:06:51;2.03;;;1.90;;
6787;SDS011;3431;47.966;10.268;2022-11-20T00:07:13;1.90;;;1.77;;
6787;SDS011;3431;47.966;10.268;2022-11-20T00:07:35;2.22;;;1.90;;
6787;SDS011;3431;47.966;10.268;2022-11-20T00:07:56;2.33;;;2.13;;
6787;SDS011;3431;47.966;10.268;2022-11-20T00:08:18;2.30;;;2.10;;
6787;SDS011;3431;47.966;10.268;2022-11-20T00:08:39;2.20;;;2.00;;
6787;SDS011;3431;47.966;10.268;2022-11-20T00:09:02;2.47;;;2.28;;
6787;SDS011;3431;47.966;10.268;2022-11-20T00:09:25;2.17;;;1.98;;
6787;SDS011;3431;47.966;10.268;2022-11-20T00:09:47;2.15;;;1.98;;
6787;SDS011;3431;47.966;10.268;2022-11-20T00:10:09;2.22;;;2.03;;
6787;SDS011;3431;47.966;10.268;2022-11-20T00:10:31;1.98;;;1.88;;
6787;SDS011;3431;47.966;10.268;2022-11-20T00:10:53;2.28;;;2.17;;
6787;SDS011;3431;47.966;10.268;2022-11-20T00:11:15;2.05;;;1.95;;
6787;SDS011;3431;47.966;10.268;2022-11-20T00:11:38;2.20;;;2.00;;
6787;SDS011;3431;47.966;10.268;2022-11-20T00:12:01;2.55;;;2.05;;
6787;SDS011;3431;47.966;10.268;2022-11-20T00:12:23;2.42;;;2.22;;
6787;SDS011;3431;47.966;10.268;2022-11-20T00:12:45;2.10;;;2.00;;
6787;SDS011;3431;47.966;10.268;2022-11-20T00:13:07;2.17;;;1.98;;
6787;SDS011;3431;47.966;10.268;2022-11-20T00:13:28;2.00;;;1.90;;
6787;SDS011;3431;47.966;10.268;2022-11-20T00:13:52;2.80;;;2.10;;
6787;SDS011;3431;47.966;10.268;2022-11-20T00:14:15;2.13;;;2.03;;
6787;SDS011;3431;47.966;10.268;2022-11-20T00:14:36;2.25;;;2.15;;
6787;SDS011;3431;47.966;10.268;2022-11-20T00:14:59;2.50;;;2.30;;
6787;SDS011;3431;47.966;10.268;2022-11-20T00:15:21;2.10;;;2.00;;
6787;SDS011;3431;47.966;10.268;2022-11-20T00:15:42;3.35;;;2.28;;
6787;SDS011;3431;47.966;10.268;2022-11-20T00:16:05;3.28;;;2.60;;
6787;SDS011;3431;47.966;10.268;2022-11-20T00:16:30;2.47;;;2.28;;
6787;SDS011;3431;47.966;10.268;2022-11-20T00:16:53;2.53;;;2.33;;
6787;SDS011;3431;47.966;10.268;2022-11-20T00:17:15;2.25;;;2.03;;
6787;SDS011;3431;47.966;10.268;2022-11-20T00:17:36;2.50;;;2.22;;
6787;SDS011;3431;47.966;10.268;2022-11-20T00:17:58;2.25;;;2.10;;
6787;SDS011;3431;47.966;10.268;2022-11-20T00:18:20;2.30;;;2.10;;
6787;SDS011;3431;47.966;10.268;2022-11-20T00:18:42;2.30;;;2.10;;
6787;SDS011;3431;47.966;10.268;2022-11-20T00:19:04;2.40;;;2.20;;
6787;SDS011;3431;47.966;10.268;2022-11-20T00:19:26;2.33;;;2.13;;
6787;SDS011;3431;47.966;10.268;2022-11-20T00:19:50;2.30;;;2.10;;
6787;SDS011;3431;47.966;10.268;2022-11-20T00:20:13;2.10;;;1.90;;
6787;SDS011;3431;47.966;10.268;2022-11-20T00:20:35;2.35;;;2.17;;
6787;SDS011;3431;47.966;10.268;2022-11-20T00:21:00;2.38;;;2.20;;
6787;SDS011;3431;47.966;10.268;2022-11-20T00:21:23;2.53;;;2.35;;
6787;SDS011;3431;47.966;10.268;2022-11-20T00:21:47;2.80;;;2.60;;
6787;SDS011;3431;47.966;10.268;2022-11-20T00:22:12;2.30;;;2.20;;
6787;SDS011;3431;47.966;10.268;2022-11-20T00:22:33;2.40;;;2.20;;
6787;SDS011;3431;47.966;10.268;2022-11-20T00:22:55;2.42;;;2.10;;
6787;SDS011;3431;47.966;10.268;2022-11-20T00:23:17;3.05;;;2.00;;
6787;SDS011;3431;47.966;10.268;2022-11-20T00:23:39;2.65;;;2.15;;
6787;SDS011;3431;47.966;10.268;2022-11-20T00:24:00;2.50;;;2.30;;
6787;SDS011;3431;47.966;10.268;2022-11-20T00:24:22;2.40;;;2.20;;
6787;SDS011;3431;47.966;10.268;2022-11-20T00:24:44;2.33;;;2.13;;
6787;SDS011;3431;47.966;10.268;2022-11-20T00:25:06;2.57;;;2.27;;
6787;SDS011;3431;47.966;10.268;2022-11-20T00:25:28;2.70;;;2.50;;
6787;SDS011;3431;47.966;10.268;2022-11-20T00:25:50;2.60;;;2.40;;
6787;SDS011;3431;47.966;10.268;2022-11-20T00:26:13;2.50;;;2.30;;
6787;SDS011;3431;47.966;10.268;2022-11-20T00:26:36;2.20;;;2.10;;
6787;SDS011;3431;47.966;10.268;2022-11-20T00:26:59;2.35;;;2.20;;
6787;SDS011;3431;47.966;10.268;2022-11-20T00:27:20;3.10;;;2.45;;
6787;SDS011;3431;47.966;10.268;2022-11-20T00:27:42;2.85;;;2.45;;
6787;SDS011;3431;47.966;10.268;2022-11-20T00:28:03;2.75;;;2.55;;
6787;SDS011;3431;47.966;10.268;2022-11-20T00:28:25;2.42;;;2.22;;
6787;SDS011;3431;47.966;10.268;2022-11-20T00:28:49;2.55;;;2.35;;
6787;SDS011;3431;47.966;10.268;2022-11-20T00:29:12;2.42;;;2.22;;
6787;SDS011;3431;47.966;10.268;2022-11-20T00:29:33;2.40;;;2.20;;
6787;SDS011;3431;47.966;10.268;2022-11-20T00:29:56;2.45;;;2.25;;
6787;SDS011;3431;47.966;10.268;2022-11-20T00:30:17;2.80;;;2.50;;
6787;SDS011;3431;47.966;10.268;2022-11-20T00:30:39;2.65;;;2.45;;
6787;SDS011;3431;47.966;10.268;2022-11-20T00:31:01;2.33;;;2.13;;
6787;SDS011;3431;47.966;10.268;2022-11-20T00:31:25;2.53;;;2.33;;
6787;SDS011;3431;47.966;10.268;2022-11-20T00:31:48;2.50;;;2.30;;
6787;SDS011;3431;47.966;10.268;2022-11-20T00:32:09;2.67;;;2.47;;
6787;SDS011;3431;47.966;10.268;2022-11-20T00:32:31;2.63;;;2.43;;
6787;SDS011;3431;47.966;10.268;2022-11-20T00:32:56;2.55;;;2.30;;
6787;SDS011;3431;47.966;10.268;2022-11-20T00:33:17;2.90;;;2.30;;
6787;SDS011;3431;47.966;10.268;2022-11-20T00:33:39;2.95;;;2.47;;
6787;SDS011;3431;47.966;10.268;2022-11-20T00:34:01;3.10;;;2.67;;
6787;SDS011;3431;47.966;10.268;2022-11-20T00:34:24;2.70;;;2.50;;
6787;SDS011;3431;47.966;10.268;2022-11-20T00:34:45;2.45;;;2.28;;
6787;SDS011;3431;47.966;10.268;2022-11-20T00:35:09;2.80;;;2.53;;
6787;SDS011;3431;47.966;10.268;2022-11-20T00:35:30;3.55;;;2.60;;
6787;SDS011;3431;47.966;10.268;2022-11-20T00:35:52;4.00;;;2.47;;
6787;SDS011;3431;47.966;10.268;2022-11-20T00:36:15;2.83;;;2.60;;
6787;SDS011;3431;47.966;10.268;2022-11-20T00:36:38;3.17;;;2.80;;
6787;SDS011;3431;47.966;10.268;2022-11-20T00:36:59;3.20;;;2.47;;
6787;SDS011;3431;47.966;10.268;2022-11-20T00:37:21;2.88;;;2.63;;
6787;SDS011;3431;47.966;10.268;2022-11-20T00:37:43;2.88;;;2.58;;
6787;SDS011;3431;47.966;10.268;2022-11-20T00:38:05;3.13;;;2.70;;
6787;SDS011;3431;47.966;10.268;2022-11-20T00:38:26;2.70;;;2.50;;
6787;SDS011;3431;47.966;10.268;2022-11-20T00:38:50;2.65;;;2.45;;
6787;SDS011;3431;47.966;10.268;2022-11-20T00:39:14;2.50;;;2.30;;
6787;SDS011;3431;47.966;10.268;2022-11-20T00:39:35;2.70;;;2.50;;
6787;SDS011;3431;47.966;10.268;2022-11-20T00:39:57;2.70;;;2.50;;
6787;SDS011;3431;47.966;10.268;2022-11-20T00:40:18;3.55;;;2.50;;
6787;SDS011;3431;47.966;10.268;2022-11-20T00:40:40;3.30;;;2.78;;
6787;SDS011;3431;47.966;10.268;2022-11-20T00:41:03;3.53;;;2.70;;
6787;SDS011;3431;47.966;10.268;2022-11-20T00:41:26;2.95;;;2.70;;
6787;SDS011;3431;47.966;10.268;2022-11-20T00:41:49;3.05;;;2.75;;
6787;SDS011;3431;47.966;10.268;2022-11-20T00:42:10;3.03;;;2.75;;
6787;SDS011;3431;47.966;10.268;2022-11-20T00:42:33;3.15;;;2.67;;
6787;SDS011;3431;47.966;10.268;2022-11-20T00:42:55;2.72;;;2.40;;
6787;SDS011;3431;47.966;10.268;2022-11-20T00:43:16;3.97;;;2.70;;
6787;SDS011;3431;47.966;10.268;2022-11-20T00:43:38;2.78;;;2.50;;
6787;SDS011;3431;47.966;10.268;2022-11-20T00:44:00;2.80;;;2.60;;
6787;SDS011;3431;47.966;10.268;2022-11-20T00:44:22;2.92;;;2.72;;
6787;SDS011;3431;47.966;10.268;2022-11-20T00:44:43;2.70;;;2.50;;
6787;SDS011;3431;47.966;10.268;2022-11-20T00:45:05;3.30;;;2.83;;
6787;SDS011;3431;47.966;10.268;2022-11-20T00:45:28;3.10;;;2.80;;
6787;SDS011;3431;47.966;10.268;2022-11-20T00:45:50;2.95;;;2.65;;
6787;SDS011;3431;47.966;10.268;2022-11-20T00:46:12;2.92;;;2.60;;
6787;SDS011;3431;47.966;10.268;2022-11-20T00:46:35;3.13;;;2.83;;
6787;SDS011;3431;47.966;10.268;2022-11-20T00:46:57;3.63;;;3.10;;
6787;SDS011;3431;47.966;10.268;2022-11-20T00:47:19;3.60;;;3.00;;
6787;SDS011;3431;47.966;10.268;2022-11-20T00:47:40;3.08;;;2.88;;
6787;SDS011;3431;47.966;10.268;2022-11-20T00:48:02;3.17;;;2.90;;
6787;SDS011;3431;47.966;10.268;2022-11-20T00:48:24;3.83;;;3.38;;
6787;SDS011;3431;47.966;10.268;2022-11-20T00:48:47;3.22;;;2.92;;
6787;SDS011;3431;47.966;10.268;2022-11-20T00:49:08;2.78;;;2.58;;
6787;SDS011;3431;47.966;10.268;2022-11-20T00:49:30;3.20;;;2.90;;
6787;SDS011;3431;47.966;10.268;2022-11-20T00:49:51;3.28;;;3.00;;
6787;SDS011;3431;47.966;10.268;2022-11-20T00:50:15;3.42;;;3.13;;
6787;SDS011;3431;47.966;10.268;2022-11-20T00:50:37;3.28;;;2.97;;
6787;SDS011;3431;47.966;10.268;2022-11-20T00:50:59;3.00;;;2.80;;
6787;SDS011;3431;47.966;10.268;2022-11-20T00:51:22;3.35;;;3.05;;
6787;SDS011;3431;47.966;10.268;2022-11-20T00:51:45;3.58;;;3.03;;
6787;SDS011;3431;47.966;10.268;2022-11-20T00:52:08;3.83;;;3.00;;
6787;SDS011;3431;47.966;10.268;2022-11-20T00:52:29;2.95;;;2.70;;
6787;SDS011;3431;47.966;10.268;2022-11-20T00:52:51;3.42;;;3.13;;
6787;SDS011;3431;47.966;10.268;2022-11-20T00:53:13;3.40;;;3.10;;
6787;SDS011;3431;47.966;10.268;2022-11-20T00:53:35;3.50;;;3.15;;
6787;SDS011;3431;47.966;10.268;2022-11-20T00:53:58;3.97;;;3.25;;
6787;SDS011;3431;47.966;10.268;2022-11-20T00:54:20;3.47;;;3.17;;
6787;SDS011;3431;47.966;10.268;2022-11-20T00:54:42;3.13;;;2.90;;
6787;SDS011;3431;47.966;10.268;2022-11-20T00:55:04;3.58;;;3.08;;
6787;SDS011;3431;47.966;10.268;2022-11-20T00:55:27;4.00;;;3.20;;
6787;SDS011;3431;47.966;10.268;2022-11-20T00:55:52;3.83;;;3.35;;
6787;SDS011;3431;47.966;10.268;2022-11-20T00:56:15;3.72;;;3.25;;
6787;SDS011;3431;47.966;10.268;2022-11-20T00:56:39;3.50;;;3.20;;
6787;SDS011;3431;47.966;10.268;2022-11-20T00:57:01;3.40;;;3.08;;
6787;SDS011;3431;47.966;10.268;2022-11-20T00:57:23;3.60;;;3.30;;
6787;SDS011;3431;47.966;10.268;2022-11-20T00:57:44;3.40;;;3.10;;
6787;SDS011;3431;47.966;10.268;2022-11-20T00:58:06;3.30;;;3.00;;
6787;SDS011;3431;47.966;10.268;2022-11-20T00:58:28;4.10;;;3.05;;
6787;SDS011;3431;47.966;10.268;2022-11-20T00:58:52;4.50;;;3.47;;
6787;SDS011;3431;47.966;10.268;2022-11-20T00:59:14;3.70;;;3.15;;
6787;SDS011;3431;47.966;10.268;2022-11-20T00:59:36;3.80;;;3.30;;
6787;SDS011;3431;47.966;10.268;2022-11-20T00:59:58;3.33;;;3.03;;
6787;SDS011;3431;47.966;10.268;2022-11-20T01:00:20;3.58;;;3.25;;
6787;SDS011;3431;47.966;10.268;2022-11-20T01:00:41;3.40;;;3.10;;
6787;SDS011;3431;47.966;10.268;2022-11-20T01:01:04;3.80;;;3.50;;
6787;SDS011;3431;47.966;10.268;2022-11-20T01:01:27;3.72;;;3.42;;
6787;SDS011;3431;47.966;10.268;2022-11-20T01:01:50;3.78;;;3.47;;
6787;SDS011;3431;47.966;10.268;2022-11-20T01:02:12;3.85;;;3.35;;
6787;SDS011;3431;47.966;10.268;2022-11-20T01:02:33;3.58;;;2.95;;
6787;SDS011;3431;47.966;10.268;2022-11-20T01:02:55;3.33;;;3.10;;
6787;SDS011;3431;47.966;10.268;2022-11-20T01:03:16;3.58;;;3.28;;
6787;SDS011;3431;47.966;10.268;2022-11-20T01:03:40;3.70;;;3.40;;
6787;SDS011;3431;47.966;10.268;2022-11-20T01:04:02;4.03;;;3.42;;
6787;SDS011;3431;47.966;10.268;2022-11-20T01:04:24;4.00;;;3.60;;
6787;SDS011;3431;47.966;10.268;2022-11-20T01:04:45;3.75;;;3.40;;
6787;SDS011;3431;47.966;10.268;2022-11-20T01:05:08;3.78;;;3.47;;
6787;SDS011;3431;47.966;10.268;2022-11-20T01:05:33;3.78;;;3.45;;
6787;SDS011;3431;47.966;10.268;2022-11-20T01:05:58;4.07;;;3.67;;
6787;SDS011;3431;47.966;10.268;2022-11-20T01:06:21;3.97;;;3.58;;
6787;SDS011;3431;47.966;10.268;2022-11-20T01:06:45;4.15;;;3.75;;
6787;SDS011;3431;47.966;10.268;2022-11-20T01:07:07;4.20;;;3.80;;
6787;SDS011;3431;47.966;10.268;2022-11-20T01:07:28;4.22;;;3.83;;
6787;SDS011;3431;47.966;10.268;2022-11-20T01:07:52;4.03;;;3.63;;
6787;SDS011;3431;47.966;10.268;2022-11-20T01:08:14;4.47;;;3.35;;
6787;SDS011;3431;47.966;10.268;2022-11-20T01:08:36;4.00;;;3.60;;
6787;SDS011;3431;47.966;10.268;2022-11-20T01:08:59;3.90;;;3.58;;
6787;SDS011;3431;47.966;10.268;2022-11-20T01:09:21;4.03;;;3.63;;
6787;SDS011;3431;47.966;10.268;2022-11-20T01:09:44;4.05;;;3.70;;
6787;SDS011;3431;47.966;10.268;2022-11-20T01:10:06;3.83;;;3.53;;
6787;SDS011;3431;47.966;10.268;2022-11-20T01:10:28;4.30;;;3.90;;
6787;SDS011;3431;47.966;10.268;2022-11-20T01:10:50;4.05;;;3.65;;
6787;SDS011;3431;47.966;10.268;2022-11-20T01:11:13;4.00;;;3.60;;
6787;SDS011;3431;47.966;10.268;2022-11-20T01:11:37;4.10;;;3.70;;
6787;SDS011;3431;47.966;10.268;2022-11-20T01:12:00;4.43;;;3.80;;
6787;SDS011;3431;47.966;10.268;2022-11-20T01:12:23;4.60;;;4.05;;
6787;SDS011;3431;47.966;10.268;2022-11-20T01:12:44;3.97;;;3.67;;
6787;SDS011;3431;47.966;10.268;2022-11-20T01:13:26;4.75;;;3.90;;
6787;SDS011;3431;47.966;10.268;2022-11-20T01:14:00;4.65;;;3.65;;
6787;SDS011;3431;47.966;10.268;2022-11-20T01:14:25;4.60;;;4.20;;
6787;SDS011;3431;47.966;10.268;2022-11-20T01:14:47;4.20;;;3.90;;
6787;SDS011;3431;47.966;10.268;2022-11-20T01:15:09;4.03;;;3.65;;
6787;SDS011;3431;47.966;10.268;2022-11-20T01:15:33;4.45;;;3.50;;
6787;SDS011;3431;47.966;10.268;2022-11-20T01:15:54;4.38;;;3.80;;
6787;SDS011;3431;47.966;10.268;2022-11-20T01:16:17;4.13;;;3.78;;
6787;SDS011;3431;47.966;10.268;2022-11-20T01:16:42;3.88;;;3.35;;
6787;SDS011;3431;47.966;10.268;2022-11-20T01:17:05;4.13;;;3.72;;
6787;SDS011;3431;47.966;10.268;2022-11-20T01:17:27;3.92;;;3.53;;
6787;SDS011;3431;47.966;10.268;2022-11-20T01:17:49;4.15;;;3.75;;
6787;SDS011;3431;47.966;10.268;2022-11-20T01:18:11;4.40;;;4.00;;
6787;SDS011;3431;47.966;10.268;2022-11-20T01:18:32;4.35;;;3.95;;
6787;SDS011;3431;47.966;10.268;2022-11-20T01:18:55;4.22;;;3.83;;
6787;SDS011;3431;47.966;10.268;2022-11-20T01:19:19;3.95;;;3.55;;
6787;SDS011;3431;47.966;10.268;2022-11-20T01:19:44;4.03;;;3.63;;
6787;SDS011;3431;47.966;10.268;2022-11-20T01:20:06;4.13;;;3.80;;
6787;SDS011;3431;47.966;10.268;2022-11-20T01:20:28;4.45;;;4.05;;
6787;SDS011;3431;47.966;10.268;2022-11-20T01:20:51;4.30;;;3.90;;
6787;SDS011;3431;47.966;10.268;2022-11-20T01:21:13;4.32;;;3.90;;
6787;SDS011;3431;47.966;10.268;2022-11-20T01:21:38;4.93;;;3.92;;
6787;SDS011;3431;47.966;10.268;2022-11-20T01:22:01;4.30;;;3.90;;
6787;SDS011;3431;47.966;10.268;2022-11-20T01:22:23;4.57;;;3.80;;
6787;SDS011;3431;47.966;10.268;2022-11-20T01:22:44;4.18;;;3.72;;
6787;SDS011;3431;47.966;10.268;2022-11-20T01:23:07;4.35;;;3.97;;
6787;SDS011;3431;47.966;10.268;2022-11-20T01:23:30;3.80;;;3.50;;
6787;SDS011;3431;47.966;10.268;2022-11-20T01:23:53;4.18;;;3.80;;
6787;SDS011;3431;47.966;10.268;2022-11-20T01:24:16;4.30;;;3.90;;
6787;SDS011;3431;47.966;10.268;2022-11-20T01:24:39;3.90;;;3.60;;
6787;SDS011;3431;47.966;10.268;2022-11-20T01:25:01;4.35;;;3.95;;
6787;SDS011;3431;47.966;10.268;2022-11-20T01:25:22;5.25;;;4.30;;
6787;SDS011;3431;47.966;10.268;2022-11-20T01:25:44;4.55;;;4.03;;
6787;SDS011;3431;47.966;10.268;2022-11-20T01:26:09;4.22;;;3.83;;
6787;SDS011;3431;47.966;10.268;2022-11-20T01:26:32;3.90;;;3.60;;
6787;SDS011;3431;47.966;10.268;2022-11-20T01:26:55;3.70;;;3.40;;
6787;SDS011;3431;47.966;10.268;2022-11-20T01:27:17;4.03;;;3.63;;
6787;SDS011;3431;47.966;10.268;2022-11-20T01:27:39;4.10;;;3.70;;
6787;SDS011;3431;47.966;10.268;2022-11-20T01:28:00;4.33;;;3.93;;
6787;SDS011;3431;47.966;10.268;2022-11-20T01:28:22;4.20;;;3.80;;
6787;SDS011;3431;47.966;10.268;2022-11-20T01:28:43;5.45;;;4.45;;
6787;SDS011;3431;47.966;10.268;2022-11-20T01:29:06;4.47;;;4.07;;
6787;SDS011;3431;47.966;10.268;2022-11-20T01:29:31;4.30;;;3.90;;
6787;SDS011;3431;47.966;10.268;2022-11-20T01:29:53;4.53;;;3.92;;
6787;SDS011;3431;47.966;10.268;2022-11-20T01:30:15;4.40;;;4.00;;
6787;SDS011;3431;47.966;10.268;2022-11-20T01:30:37;4.05;;;3.75;;
6787;SDS011;3431;47.966;10.268;2022-11-20T01:30:59;4.00;;;3.63;;
6787;SDS011;3431;47.966;10.268;2022-11-20T01:31:21;3.97;;;3.67;;
6787;SDS011;3431;47.966;10.268;2022-11-20T01:31:44;4.40;;;3.85;;
6787;SDS011;3431;47.966;10.268;2022-11-20T01:32:06;4.20;;;3.80;;
6787;SDS011;3431;47.966;10.268;2022-11-20T01:32:28;4.20;;;3.75;;
6787;SDS011;3431;47.966;10.268;2022-11-20T01:32:49;4.43;;;4.03;;
6787;SDS011;3431;47.966;10.268;2022-11-20T01:33:11;4.03;;;3.72;;
6787;SDS011;3431;47.966;10.268;2022-11-20T01:33:33;4.35;;;3.95;;
6787;SDS011;3431;47.966;10.268;2022-11-20T01:33:56;4.70;;;3.90;;
6787;SDS011;3431;47.966;10.268;2022-11-20T01:34:20;4.00;;;3.70;;
6787;SDS011;3431;47.966;10.268;2022-11-20T01:34:43;4.32;;;3.80;;
6787;SDS011;3431;47.966;10.268;2022-11-20T01:35:05;3.92;;;3.60;;
6787;SDS011;3431;47.966;10.268;2022-11-20T01:35:30;4.20;;;3.70;;
6787;SDS011;3431;47.966;10.268;2022-11-20T01:35:53;5.55;;;3.78;;
6787;SDS011;3431;47.966;10.268;2022-11-20T01:36:24;3.55;;;3.25;;
6787;SDS011;3431;47.966;10.268;2022-11-20T01:36:48;4.20;;;3.72;;
6787;SDS011;3431;47.966;10.268;2022-11-20T01:37:11;4.35;;;3.95;;
6787;SDS011;3431;47.966;10.268;2022-11-20T01:37:33;4.20;;;3.85;;
6787;SDS011;3431;47.966;10.268;2022-11-20T01:37:54;4.20;;;3.80;;
6787;SDS011;3431;47.966;10.268;2022-11-20T01:38:16;4.38;;;3.97;;
6787;SDS011;3431;47.966;10.268;2022-11-20T01:38:38;3.92;;;3.63;;
6787;SDS011;3431;47.966;10.268;2022-11-20T01:39:00;4.22;;;3.83;;
6787;SDS011;3431;47.966;10.268;2022-11-20T01:39:25;3.83;;;3.53;;
6787;SDS011;3431;47.966;10.268;2022-11-20T01:39:47;4.20;;;3.80;;
6787;SDS011;3431;47.966;10.268;2022-11-20T01:40:09;4.22;;;3.83;;
6787;SDS011;3431;47.966;10.268;2022-11-20T01:40:31;4.40;;;3.70;;
6787;SDS011;3431;47.966;10.268;2022-11-20T01:40:54;4.63;;;3.88;;
6787;SDS011;3431;47.966;10.268;2022-11-20T01:41:16;3.97;;;3.63;;
6787;SDS011;3431;47.966;10.268;2022-11-20T01:41:53;4.18;;;3.78;;
6787;SDS011;3431;47.966;10.268;2022-11-20T01:42:34;4.30;;;3.90;;
6787;SDS011;3431;47.966;10.268;2022-11-20T01:43:20;4.35;;;3.95;;
6787;SDS011;3431;47.966;10.268;2022-11-20T01:43:41;4.93;;;4.43;;
6787;SDS011;3431;47.966;10.268;2022-11-20T01:44:03;4.30;;;3.80;;
6787;SDS011;3431;47.966;10.268;2022-11-20T01:46:15;4.10;;;3.78;;
6787;SDS011;3431;47.966;10.268;2022-11-20T01:46:39;4.50;;;4.10;;
6787;SDS011;3431;47.966;10.268;2022-11-20T01:47:05;4.28;;;3.88;;
6787;SDS011;3431;47.966;10.268;2022-11-20T01:47:31;4.13;;;3.72;;
6787;SDS011;3431;47.966;10.268;2022-11-20T01:47:55;4.40;;;4.00;;
6787;SDS011;3431;47.966;10.268;2022-11-20T01:48:18;4.22;;;3.83;;
6787;SDS011;3431;47.966;10.268;2022-11-20T01:48:44;3.65;;;3.35;;
6787;SDS011;3431;47.966;10.268;2022-11-20T01:49:10;4.20;;;3.80;;
6787;SDS011;3431;47.966;10.268;2022-11-20T01:49:38;4.07;;;3.67;;
6787;SDS011;3431;47.966;10.268;2022-11-20T01:50:05;4.25;;;3.85;;
6787;SDS011;3431;47.966;10.268;2022-11-20T01:50:31;4.03;;;3.72;;
6787;SDS011;3431;47.966;10.268;2022-11-20T01:50:55;4.07;;;3.70;;
6787;SDS011;3431;47.966;10.268;2022-11-20T01:51:21;5.00;;;4.10;;
6787;SDS011;3431;47.966;10.268;2022-11-20T01:51:48;3.85;;;3.55;;
6787;SDS011;3431;47.966;10.268;2022-11-20T01:52:14;3.78;;;3.47;;
6787;SDS011;3431;47.966;10.268;2022-11-20T01:52:41;4.10;;;3.70;;
6787;SDS011;3431;47.966;10.268;2022-11-20T01:53:08;4.22;;;3.83;;
6787;SDS011;3431;47.966;10.268;2022-11-20T01:53:34;3.97;;;3.67;;
6787;SDS011;3431;47.966;10.268;2022-11-20T01:53:58;4.13;;;3.72;;
6787;SDS011;3431;47.966;10.268;2022-11-20T01:54:25;4.00;;;3.60;;
6787;SDS011;3431;47.966;10.268;2022-11-20T01:54:53;3.92;;;3.53;;
6787;SDS011;3431;47.966;10.268;2022-11-20T01:55:19;3.90;;;3.50;;
6787;SDS011;3431;47.966;10.268;2022-11-20T01:55:43;3.92;;;3.63;;
6787;SDS011;3431;47.966;10.268;2022-11-20T01:56:10;3.97;;;3.67;;
6787;SDS011;3431;47.966;10.268;2022-11-20T01:56:36;4.30;;;3.90;;
6787;SDS011;3431;47.966;10.268;2022-11-20T01:57:01;4.00;;;3.60;;
6787;SDS011;3431;47.966;10.268;2022-11-20T01:57:25;3.40;;;3.10;;
6787;SDS011;3431;47.966;10.268;2022-11-20T01:57:51;3.53;;;3.28;;
6787;SDS011;3431;47.966;10.268;2022-11-20T01:58:13;4.00;;;3.70;;
6787;SDS011;3431;47.966;10.268;2022-11-20T01:58:37;3.70;;;3.40;;
6787;SDS011;3431;47.966;10.268;2022-11-20T01:59:04;4.18;;;3.78;;
6787;SDS011;3431;47.966;10.268;2022-11-20T01:59:28;4.03;;;3.63;;
6787;SDS011;3431;47.966;10.268;2022-11-20T01:59:51;4.10;;;3.50;;
6787;SDS011;3431;47.966;10.268;2022-11-20T02:00:18;3.80;;;3.50;;
6787;SDS011;3431;47.966;10.268;2022-11-20T02:00:41;3.85;;;3.55;;
6787;SDS011;3431;47.966;10.268;2022-11-20T02:01:03;3.80;;;3.50;;
6787;SDS011;3431;47.966;10.268;2022-11-20T02:01:26;3.70;;;3.40;;
6787;SDS011;3431;47.966;10.268;2022-11-20T02:01:48;4.13;;;3.72;;
6787;SDS011;3431;47.966;10.268;2022-11-20T02:02:09;4.72;;;3.72;;
6787;SDS011;3431;47.966;10.268;2022-11-20T02:02:31;4.32;;;3.72;;
6787;SDS011;3431;47.966;10.268;2022-11-20T02:02:54;3.92;;;3.63;;
6787;SDS011;3431;47.966;10.268;2022-11-20T02:03:20;3.92;;;3.33;;
6787;SDS011;3431;47.966;10.268;2022-11-20T02:03:41;3.50;;;3.20;;
6787;SDS011;3431;47.966;10.268;2022-11-20T02:04:05;4.15;;;3.75;;
6787;SDS011;3431;47.966;10.268;2022-11-20T02:04:31;4.07;;;3.67;;
6787;SDS011;3431;47.966;10.268;2022-11-20T02:04:54;4.50;;;3.70;;
6787;SDS011;3431;47.966;10.268;2022-11-20T02:05:22;4.35;;;3.95;;
6787;SDS011;3431;47.966;10.268;2022-11-20T02:05:47;3.83;;;3.42;;
6787;SDS011;3431;47.966;10.268;2022-11-20T02:06:16;3.78;;;3.38;;
6787;SDS011;3431;47.966;10.268;2022-11-20T02:06:42;3.58;;;3.28;;
6787;SDS011;3431;47.966;10.268;2022-11-20T02:07:06;3.72;;;3.42;;
6787;SDS011;3431;47.966;10.268;2022-11-20T02:07:29;3.70;;;3.40;;
6787;SDS011;3431;47.966;10.268;2022-11-20T02:07:51;3.80;;;3.50;;
6787;SDS011;3431;47.966;10.268;2022-11-20T02:08:15;4.07;;;3.47;;
6787;SDS011;3431;47.966;10.268;2022-11-20T02:08:39;3.70;;;3.40;;
6787;SDS011;3431;47.966;10.268;2022-11-20T02:09:00;3.43;;;3.13;;
6787;SDS011;3431;47.966;10.268;2022-11-20T02:09:22;3.50;;;3.20;;
6787;SDS011;3431;47.966;10.268;2022-11-20T02:09:44;3.60;;;3.30;;
6787;SDS011;3431;47.966;10.268;2022-11-20T02:10:06;3.45;;;3.15;;
6787;SDS011;3431;47.966;10.268;2022-11-20T02:10:28;3.40;;;3.10;;
6787;SDS011;3431;47.966;10.268;2022-11-20T02:10:50;3.55;;;3.25;;
6787;SDS011;3431;47.966;10.268;2022-11-20T02:11:12;3.70;;;3.40;;
6787;SDS011;3431;47.966;10.268;2022-11-20T02:11:34;4.00;;;3.70;;
6787;SDS011;3431;47.966;10.268;2022-11-20T02:11:56;3.70;;;3.40;;
6787;SDS011;3431;47.966;10.268;2022-11-20T02:12:19;3.97;;;3.60;;
6787;SDS011;3431;47.966;10.268;2022-11-20T02:13:14;3.75;;;3.35;;
6787;SDS011;3431;47.966;10.268;2022-11-20T02:13:54;3.50;;;3.20;;
6787;SDS011;3431;47.966;10.268;2022-11-20T02:14:16;3.88;;;3.58;;
6787;SDS011;3431;47.966;10.268;2022-11-20T02:14:38;4.20;;;3.45;;
6787;SDS011;3431;47.966;10.268;2022-11-20T02:14:59;4.15;;;3.33;;
6787;SDS011;3431;47.966;10.268;2022-11-20T02:15:21;3.55;;;3.25;;
6787;SDS011;3431;47.966;10.268;2022-11-20T02:15:43;3.70;;;3.40;;
6787;SDS011;3431;47.966;10.268;2022-11-20T02:16:08;3.85;;;3.45;;
6787;SDS011;3431;47.966;10.268;2022-11-20T02:16:33;3.90;;;3.50;;
6787;SDS011;3431;47.966;10.268;2022-11-20T02:16:58;3.55;;;3.25;;
6787;SDS011;3431;47.966;10.268;2022-11-20T02:17:21;3.40;;;3.13;;
6787;SDS011;3431;47.966;10.268;2022-11-20T02:17:42;3.65;;;3.35;;
6787;SDS011;3431;47.966;10.268;2022-11-20T02:18:04;3.75;;;3.45;;
6787;SDS011;3431;47.966;10.268;2022-11-20T02:18:27;3.88;;;3.55;;
6787;SDS011;3431;47.966;10.268;2022-11-20T02:18:50;3.88;;;3.58;;
6787;SDS011;3431;47.966;10.268;2022-11-20T02:19:16;3.42;;;3.15;;
6787;SDS011;3431;47.966;10.268;2022-11-20T02:19:44;3.60;;;3.30;;
6787;SDS011;3431;47.966;10.268;2022-11-20T02:20:06;3.90;;;3.30;;
6787;SDS011;3431;47.966;10.268;2022-11-20T02:20:28;3.63;;;3.35;;
6787;SDS011;3431;47.966;10.268;2022-11-20T02:20:51;3.63;;;3.33;;
6787;SDS011;3431;47.966;10.268;2022-11-20T02:21:24;3.78;;;3.47;;
6787;SDS011;3431;47.966;10.268;2022-11-20T02:21:54;4.10;;;3.80;;
6787;SDS011;3431;47.966;10.268;2022-11-20T02:22:21;3.75;;;3.45;;
6787;SDS011;3431;47.966;10.268;2022-11-20T02:22:50;3.67;;;3.25;;
6787;SDS011;3431;47.966;10.268;2022-11-20T02:23:18;3.70;;;3.40;;
6787;SDS011;3431;47.966;10.268;2022-11-20T02:23:58;3.45;;;3.15;;
6787;SDS011;3431;47.966;10.268;2022-11-20T02:24:23;3.70;;;3.40;;